createdAt,value
2023-05-10T00:00:48.294Z,99.90
2023-05-10T00:03:15.385Z,99.90
2023-05-10T00:05:42.411Z,99.90
2023-05-10T00:08:09.374Z,99.90
2023-05-10T00:10:37.233Z,99.90
2023-05-10T00:13:09.281Z,99.90
2023-05-10T00:15:36.117Z,99.90
2023-05-10T00:18:03.254Z,99.90
2023-05-10T00:20:30.223Z,99.90
2023-05-10T00:22:57.706Z,99.90
2023-05-10T00:25:25.152Z,99.90
2023-05-10T00:27:53.009Z,99.90
2023-05-10T00:30:20.088Z,99.90
2023-05-10T00:32:49.311Z,99.90
2023-05-10T00:35:17.042Z,99.90
2023-05-10T00:37:44.057Z,99.90
2023-05-10T00:40:11.338Z,99.90
2023-05-10T00:42:38.234Z,99.90
2023-05-10T00:45:07.474Z,99.90
2023-05-10T00:47:35.009Z,99.90
2023-05-10T00:50:03.465Z,99.90
2023-05-10T00:52:31.192Z,99.90
2023-05-10T00:54:59.539Z,99.90
2023-05-10T00:57:26.642Z,99.90
2023-05-10T00:59:53.621Z,99.90
2023-05-10T01:02:20.593Z,99.90
2023-05-10T01:04:47.778Z,99.90
2023-05-10T01:07:14.688Z,99.90
2023-05-10T01:09:41.563Z,99.90
2023-05-10T01:12:08.822Z,99.90
2023-05-10T01:14:37.345Z,99.90
2023-05-10T01:17:05.919Z,99.90
2023-05-10T01:19:35.937Z,99.90
2023-05-10T01:22:47.945Z,99.90
2023-05-10T01:25:24.110Z,99.90
2023-05-10T01:28:09.715Z,99.90
2023-05-10T01:31:07.282Z,99.90
2023-05-10T01:34:03.746Z,99.90
2023-05-10T01:36:41.381Z,99.90
2023-05-10T01:39:17.224Z,99.90
2023-05-10T01:42:00.683Z,99.90
2023-05-10T01:45:04.839Z,99.90
2023-05-10T01:47:49.651Z,99.90
2023-05-10T01:50:20.869Z,99.90
2023-05-10T01:52:55.486Z,99.90
2023-05-10T01:55:26.072Z,99.90
2023-05-10T01:57:59.839Z,99.90
2023-05-10T02:00:28.322Z,99.90
2023-05-10T02:02:56.117Z,99.90
2023-05-10T02:05:24.043Z,99.90
2023-05-10T02:07:52.498Z,99.90
2023-05-10T02:10:20.676Z,99.90
2023-05-10T02:12:49.596Z,99.90
2023-05-10T02:15:22.162Z,99.90
2023-05-10T02:17:49.987Z,99.90
2023-05-10T02:20:18.224Z,99.90
2023-05-10T02:22:48.093Z,99.90
2023-05-10T02:25:16.675Z,99.90
2023-05-10T02:27:45.465Z,99.90
2023-05-10T02:30:13.360Z,99.90
2023-05-10T02:32:40.891Z,99.90
2023-05-10T02:35:09.425Z,99.90
2023-05-10T02:37:37.967Z,99.90
2023-05-10T02:40:06.558Z,99.90
2023-05-10T02:42:36.746Z,99.90
2023-05-10T02:45:11.835Z,99.90
2023-05-10T02:47:39.071Z,99.90
2023-05-10T02:50:06.606Z,99.90
2023-05-10T02:52:55.251Z,99.90
2023-05-10T02:55:33.220Z,99.90
2023-05-10T02:58:01.958Z,99.90
2023-05-10T03:00:29.354Z,99.90
2023-05-10T03:02:56.207Z,99.90
2023-05-10T03:05:23.323Z,99.90
2023-05-10T03:07:50.737Z,99.90
2023-05-10T03:10:18.430Z,99.90
2023-05-10T03:12:56.849Z,99.90
2023-05-10T03:15:39.182Z,99.90
2023-05-10T03:18:13.856Z,99.90
2023-05-10T03:20:49.521Z,99.90
2023-05-10T03:23:41.838Z,99.90
2023-05-10T03:26:09.987Z,99.90
2023-05-10T03:28:37.790Z,99.90
2023-05-10T03:31:07.143Z,99.90
2023-05-10T03:33:34.533Z,99.90
2023-05-10T03:36:01.466Z,99.90
2023-05-10T03:38:30.278Z,99.90
2023-05-10T03:40:57.805Z,99.90
2023-05-10T03:43:24.721Z,99.90
2023-05-10T03:45:52.711Z,99.90
2023-05-10T03:48:19.547Z,99.90
2023-05-10T03:50:46.778Z,99.90
2023-05-10T03:53:14.248Z,99.90
2023-05-10T03:55:41.111Z,99.90
2023-05-10T03:58:12.150Z,99.90
2023-05-10T04:00:44.520Z,99.90
2023-05-10T04:03:12.652Z,99.90
2023-05-10T04:05:40.065Z,99.90
2023-05-10T04:08:07.371Z,99.90
2023-05-10T04:10:34.191Z,99.90
2023-05-10T04:13:00.986Z,99.90
2023-05-10T04:15:27.841Z,99.90
2023-05-10T04:17:54.728Z,99.90
2023-05-10T04:20:21.653Z,99.90
2023-05-10T04:22:48.512Z,99.90
2023-05-10T04:25:15.328Z,99.90
2023-05-10T04:27:42.646Z,99.90
2023-05-10T04:30:09.910Z,99.90
2023-05-10T04:32:37.206Z,99.90
2023-05-10T04:35:05.693Z,99.90
2023-05-10T04:37:32.608Z,99.90
2023-05-10T04:40:00.914Z,99.90
2023-05-10T04:42:27.710Z,99.90
2023-05-10T04:44:54.567Z,99.90
2023-05-10T04:47:21.485Z,99.90
2023-05-10T04:49:48.375Z,99.90
2023-05-10T04:52:16.114Z,99.90
2023-05-10T04:54:42.933Z,99.90
2023-05-10T04:57:09.752Z,99.90
2023-05-10T04:59:38.264Z,99.90
2023-05-10T05:02:06.234Z,99.90
2023-05-10T05:04:33.197Z,99.90
2023-05-10T05:07:00.222Z,99.90
2023-05-10T05:09:27.070Z,99.90
2023-05-10T05:11:54.046Z,99.90
2023-05-10T05:14:22.090Z,99.90
2023-05-10T05:16:48.955Z,99.90
2023-05-10T05:19:16.456Z,99.90
2023-05-10T05:21:43.321Z,99.90
2023-05-10T05:24:11.149Z,99.90
2023-05-10T05:26:37.961Z,99.90
2023-05-10T05:29:05.000Z,99.90
2023-05-10T05:31:31.943Z,99.90
2023-05-10T05:33:58.841Z,99.90
2023-05-10T05:36:25.884Z,99.90
2023-05-10T05:38:52.659Z,99.90
2023-05-10T05:41:19.555Z,99.90
2023-05-10T05:43:46.411Z,99.90
2023-05-10T05:46:13.269Z,99.90
2023-05-10T05:48:40.148Z,99.90
2023-05-10T05:51:07.487Z,99.90
2023-05-10T05:53:34.525Z,99.90
2023-05-10T05:56:01.432Z,99.90
2023-05-10T05:58:28.919Z,99.90
2023-05-10T06:00:55.767Z,99.90
2023-05-10T06:03:22.743Z,99.90
2023-05-10T06:05:49.695Z,99.90
2023-05-10T06:08:16.557Z,99.90
2023-05-10T06:10:43.497Z,99.90
2023-05-10T06:13:10.942Z,99.90
2023-05-10T06:15:38.004Z,99.90
2023-05-10T06:18:05.191Z,99.90
2023-05-10T06:20:32.599Z,99.90
2023-05-10T06:22:59.839Z,99.90
2023-05-10T06:25:26.903Z,99.90
2023-05-10T06:27:58.213Z,99.90
2023-05-10T06:30:28.564Z,99.90
2023-05-10T06:32:56.264Z,99.90
2023-05-10T06:35:23.318Z,99.90
2023-05-10T06:37:50.918Z,99.90
2023-05-10T06:40:18.254Z,99.90
2023-05-10T06:42:46.121Z,99.90
2023-05-10T06:45:13.842Z,99.90
2023-05-10T06:47:41.391Z,99.90
2023-05-10T06:50:10.136Z,99.90
2023-05-10T06:52:36.954Z,99.90
2023-05-10T06:55:04.886Z,99.90
2023-05-10T06:57:32.384Z,99.90
2023-05-10T07:00:00.277Z,99.90
2023-05-10T07:02:27.303Z,99.90
2023-05-10T07:04:54.424Z,99.90
2023-05-10T07:07:21.394Z,99.90
2023-05-10T07:09:48.295Z,99.90
2023-05-10T07:12:15.885Z,99.90
2023-05-10T07:14:43.288Z,99.90
2023-05-10T07:17:10.950Z,99.90
2023-05-10T07:19:38.061Z,99.90
2023-05-10T07:22:04.888Z,99.90
2023-05-10T07:24:37.300Z,99.90
2023-05-10T07:27:04.179Z,99.90
2023-05-10T07:29:31.173Z,99.90
2023-05-10T07:31:58.821Z,99.90
2023-05-10T07:34:26.422Z,99.90
2023-05-10T07:36:53.886Z,99.90
2023-05-10T07:39:27.721Z,99.90
2023-05-10T07:41:56.154Z,99.90
2023-05-10T07:44:23.364Z,99.90
2023-05-10T07:46:50.280Z,99.90
2023-05-10T07:49:17.422Z,99.90
2023-05-10T07:51:44.334Z,99.90
2023-05-10T07:54:11.222Z,99.90
2023-05-10T07:56:38.200Z,99.90
2023-05-10T07:59:07.369Z,99.90
2023-05-10T08:01:35.461Z,99.90
2023-05-10T08:04:03.370Z,99.90
2023-05-10T08:06:31.363Z,99.90
2023-05-10T08:08:58.802Z,99.90
2023-05-10T08:11:26.184Z,99.90
2023-05-10T08:13:53.852Z,99.90
2023-05-10T08:16:21.039Z,99.90
2023-05-10T08:18:48.775Z,99.90
2023-05-10T08:21:16.548Z,99.90
2023-05-10T08:23:48.481Z,99.90
2023-05-10T08:26:15.359Z,99.90
2023-05-10T08:28:42.203Z,99.90
2023-05-10T08:31:09.055Z,99.90
2023-05-10T08:33:46.262Z,99.90
2023-05-10T08:36:15.207Z,99.90
2023-05-10T08:38:42.222Z,99.90
2023-05-10T08:41:09.949Z,99.90
2023-05-10T08:43:55.717Z,99.90
2023-05-10T08:46:24.389Z,99.90
2023-05-10T08:48:53.103Z,99.90
2023-05-10T08:51:23.506Z,99.90
2023-05-10T08:54:16.059Z,99.90
2023-05-10T08:56:43.042Z,99.90
2023-05-10T08:59:10.156Z,99.90
2023-05-10T09:01:38.015Z,99.90
2023-05-10T09:04:41.366Z,99.90
2023-05-10T09:07:08.312Z,99.90
2023-05-10T09:09:36.205Z,99.90
2023-05-10T09:12:03.240Z,99.90
2023-05-10T09:14:30.530Z,99.60
2023-05-10T09:16:57.770Z,99.30
2023-05-10T09:19:24.588Z,99.20
2023-05-10T09:21:51.583Z,99.00
2023-05-10T09:25:21.482Z,98.90
2023-05-10T09:27:49.302Z,99.20
2023-05-10T09:30:26.610Z,99.10
2023-05-10T09:32:54.265Z,98.10
2023-05-10T09:35:25.045Z,98.20
2023-05-10T09:37:55.117Z,98.50
2023-05-10T09:40:27.700Z,98.60
2023-05-10T09:42:59.919Z,98.50
2023-05-10T09:45:31.946Z,98.50
2023-05-10T09:48:00.023Z,98.40
2023-05-10T09:50:28.460Z,98.40
2023-05-10T09:52:56.136Z,98.20
2023-05-10T09:55:25.111Z,98.20
2023-05-10T09:58:01.002Z,98.50
2023-05-10T10:00:29.113Z,97.90
2023-05-10T10:02:57.985Z,98.20
2023-05-10T10:05:32.416Z,98.00
2023-05-10T10:08:00.660Z,97.50
2023-05-10T10:10:28.725Z,97.70
2023-05-10T10:12:56.460Z,97.80
2023-05-10T10:15:24.099Z,97.50
2023-05-10T10:17:52.252Z,97.60
2023-05-10T10:20:20.779Z,97.70
2023-05-10T10:22:48.591Z,97.80
2023-05-10T10:25:17.205Z,97.70
2023-05-10T10:27:58.653Z,97.60
2023-05-10T10:30:44.646Z,97.80
2023-05-10T10:35:55.064Z,98.00
2023-05-10T10:38:22.182Z,97.70
2023-05-10T10:40:49.273Z,97.70
2023-05-10T10:43:42.484Z,97.70
2023-05-10T10:46:20.695Z,97.60
2023-05-10T10:49:09.392Z,97.60
2023-05-10T10:51:42.432Z,97.40
2023-05-10T10:54:29.526Z,97.40
2023-05-10T10:57:15.963Z,97.00
2023-05-10T10:59:45.032Z,97.00
2023-05-10T11:02:31.964Z,97.10
2023-05-10T11:05:00.249Z,97.30
2023-05-10T11:07:27.782Z,97.60
2023-05-10T11:09:55.782Z,97.60
2023-05-10T11:12:23.397Z,97.70
2023-05-10T11:14:58.825Z,97.50
2023-05-10T11:17:28.419Z,97.50
2023-05-10T11:20:11.788Z,97.40
2023-05-10T11:22:54.988Z,97.40
2023-05-10T11:25:27.694Z,96.70
2023-05-10T11:27:54.547Z,96.60
2023-05-10T11:30:21.818Z,96.90
2023-05-10T11:32:48.796Z,96.90
2023-05-10T11:35:15.822Z,96.80
2023-05-10T11:37:44.833Z,97.00
2023-05-10T11:40:12.387Z,96.50
2023-05-10T11:42:39.869Z,96.60
2023-05-10T11:45:07.486Z,96.50
2023-05-10T11:47:36.723Z,96.40
2023-05-10T11:50:04.074Z,96.50
2023-05-10T11:52:36.198Z,96.30
2023-05-10T11:55:03.698Z,96.30
2023-05-10T11:57:32.270Z,96.40
2023-05-10T11:59:59.396Z,96.40
2023-05-10T12:02:26.751Z,96.60
2023-05-10T12:04:55.878Z,96.70
2023-05-10T12:07:23.007Z,96.80
2023-05-10T12:10:11.527Z,96.70
2023-05-10T12:12:45.606Z,96.60
2023-05-10T12:15:21.049Z,96.60
2023-05-10T12:17:48.631Z,96.40
2023-05-10T12:20:22.648Z,96.20
2023-05-10T12:23:00.346Z,96.10
2023-05-10T12:25:31.928Z,95.90
2023-05-10T12:28:04.303Z,95.20
2023-05-10T12:30:33.970Z,94.70
2023-05-10T12:33:12.603Z,94.40
2023-05-10T12:36:06.133Z,94.20
2023-05-10T12:38:39.203Z,93.80
2023-05-10T12:41:11.953Z,92.50
2023-05-10T12:43:44.217Z,92.50
2023-05-10T12:46:16.983Z,92.50
2023-05-10T12:48:45.460Z,92.40
2023-05-10T12:51:14.208Z,91.90
2023-05-10T12:54:21.906Z,91.70
2023-05-10T12:56:48.801Z,91.90
2023-05-10T12:59:15.939Z,92.00
2023-05-10T13:01:42.916Z,92.20
2023-05-10T13:04:34.714Z,92.30
2023-05-10T13:07:01.662Z,92.40
2023-05-10T13:09:30.612Z,92.40
2023-05-10T13:11:57.740Z,92.20
2023-05-10T13:17:30.331Z,92.60
2023-05-10T13:20:01.349Z,92.90
2023-05-10T13:23:21.469Z,93.30
2023-05-10T13:25:49.859Z,93.50
2023-05-10T13:28:17.147Z,93.70
2023-05-10T13:30:44.058Z,94.00
2023-05-10T13:33:28.237Z,94.20
2023-05-10T13:35:57.561Z,94.40
2023-05-10T13:38:24.669Z,94.80
2023-05-10T13:40:54.232Z,95.00
2023-05-10T13:43:22.080Z,95.30
2023-05-10T13:45:49.461Z,95.60
2023-05-10T13:48:16.640Z,95.70
2023-05-10T13:50:44.434Z,95.90
2023-05-10T13:53:16.512Z,96.40
2023-05-10T13:55:43.425Z,96.70
2023-05-10T13:58:10.264Z,97.20
2023-05-10T14:00:37.155Z,97.50
2023-05-10T14:03:06.099Z,97.70
2023-05-10T14:05:33.248Z,97.80
2023-05-10T14:08:00.198Z,98.10
2023-05-10T14:10:28.484Z,98.40
2023-05-10T14:12:55.442Z,98.50
2023-05-10T14:15:22.378Z,98.60
2023-05-10T14:17:49.378Z,98.60
2023-05-10T14:20:19.819Z,98.80
2023-05-10T14:22:49.790Z,99.00
2023-05-10T14:25:20.559Z,99.20
2023-05-10T14:27:55.753Z,99.30
2023-05-10T14:30:23.141Z,99.40
2023-05-10T14:32:50.373Z,99.40
2023-05-10T14:35:19.483Z,99.50
2023-05-10T14:37:47.056Z,99.50
2023-05-10T14:40:15.321Z,99.60
2023-05-10T14:42:44.059Z,99.70
2023-05-10T14:45:12.061Z,99.70
2023-05-10T14:47:39.279Z,99.90
2023-05-10T14:50:06.892Z,99.90
2023-05-10T14:52:34.428Z,99.90
2023-05-10T14:55:02.653Z,99.90
2023-05-10T14:57:31.014Z,99.90
2023-05-10T14:59:58.070Z,99.90
2023-05-10T15:02:25.566Z,99.90
2023-05-10T15:04:59.020Z,99.90
2023-05-10T15:07:26.416Z,99.90
2023-05-10T15:09:53.347Z,99.90
2023-05-10T15:12:20.356Z,99.90
2023-05-10T15:15:03.104Z,99.90
2023-05-10T15:17:30.224Z,99.90
2023-05-10T15:19:57.364Z,99.90
2023-05-10T15:22:25.151Z,99.90
2023-05-10T15:24:59.259Z,99.90
2023-05-10T15:27:26.822Z,99.90
2023-05-10T15:29:53.996Z,99.90
2023-05-10T15:32:21.145Z,99.70
2023-05-10T15:34:48.176Z,99.00
2023-05-10T15:37:15.061Z,99.00
2023-05-10T15:39:41.883Z,99.00
2023-05-10T15:42:08.663Z,98.80
2023-05-10T15:44:36.076Z,98.90
2023-05-10T15:47:07.018Z,98.80
2023-05-10T15:49:34.060Z,98.70
2023-05-10T15:52:01.071Z,98.60
2023-05-10T15:54:53.200Z,98.70
2023-05-10T15:57:20.096Z,98.80
2023-05-10T15:59:47.043Z,98.80
2023-05-10T16:02:14.057Z,98.70
2023-05-10T16:04:55.907Z,98.50
2023-05-10T16:07:22.794Z,98.10
2023-05-10T16:09:49.669Z,98.00
2023-05-10T16:12:16.628Z,98.00
2023-05-10T16:14:49.141Z,97.90
2023-05-10T16:17:16.070Z,97.80
2023-05-10T16:19:42.947Z,97.80
2023-05-10T16:22:09.751Z,97.50
2023-05-10T16:24:36.707Z,97.60
2023-05-10T16:27:03.502Z,97.10
2023-05-10T16:29:30.438Z,97.00
2023-05-10T16:31:57.215Z,97.30
2023-05-10T16:34:50.911Z,97.40
2023-05-10T16:37:19.378Z,97.10
2023-05-10T16:39:47.848Z,97.60
2023-05-10T16:42:14.776Z,97.70
2023-05-10T16:44:42.350Z,97.90
2023-05-10T16:47:09.200Z,98.00
2023-05-10T16:49:37.338Z,98.00
2023-05-10T16:52:04.198Z,98.10
2023-05-10T16:54:31.326Z,98.20
2023-05-10T16:56:59.638Z,98.10
2023-05-10T16:59:26.755Z,98.20
2023-05-10T17:01:53.938Z,98.20
2023-05-10T17:04:26.136Z,98.60
2023-05-10T17:06:52.990Z,98.10
2023-05-10T17:09:20.616Z,98.00
2023-05-10T17:11:47.533Z,97.90
2023-05-10T17:15:05.533Z,97.80
2023-05-10T17:17:33.030Z,97.40
2023-05-10T17:19:59.947Z,97.60
2023-05-10T17:22:27.005Z,97.80
2023-05-10T17:24:54.167Z,97.90
2023-05-10T17:27:21.091Z,97.80
2023-05-10T17:29:47.865Z,97.70
2023-05-10T17:32:14.765Z,97.70
2023-05-10T17:34:41.646Z,97.90
2023-05-10T17:37:09.364Z,97.90
2023-05-10T17:39:37.513Z,98.10
2023-05-10T17:42:05.678Z,98.20
2023-05-10T17:44:32.686Z,98.20
2023-05-10T17:47:00.168Z,98.30
2023-05-10T17:49:28.789Z,98.10
2023-05-10T17:51:55.723Z,98.20
2023-05-10T17:54:27.942Z,98.30
2023-05-10T17:56:56.071Z,98.20
2023-05-10T17:59:23.037Z,98.20
2023-05-10T18:01:49.906Z,98.20
2023-05-10T18:04:16.812Z,98.30
2023-05-10T18:06:43.667Z,98.40
2023-05-10T18:09:11.246Z,98.30
2023-05-10T18:11:39.377Z,98.20
2023-05-10T18:14:06.370Z,98.30
2023-05-10T18:16:33.390Z,98.30
2023-05-10T18:19:00.241Z,98.40
2023-05-10T18:21:27.221Z,98.30
2023-05-10T18:24:57.655Z,98.20
2023-05-10T18:27:31.252Z,98.20
2023-05-10T18:29:58.284Z,98.40
2023-05-10T18:32:25.352Z,98.40
2023-05-10T18:34:57.825Z,98.50
2023-05-10T18:37:24.791Z,98.50
2023-05-10T18:39:52.037Z,98.50
2023-05-10T18:42:20.472Z,99.00
2023-05-10T18:44:53.447Z,98.70
2023-05-10T18:47:20.621Z,98.80
2023-05-10T18:49:47.482Z,98.80
2023-05-10T18:52:16.073Z,98.80
2023-05-10T18:54:43.027Z,98.80
2023-05-10T18:57:10.220Z,99.30
2023-05-10T18:59:37.264Z,99.00
2023-05-10T19:02:04.644Z,98.90
2023-05-10T19:04:59.913Z,99.00
2023-05-10T19:07:27.013Z,98.80
2023-05-10T19:09:53.952Z,98.90
2023-05-10T19:12:20.936Z,98.90
2023-05-10T19:15:04.068Z,99.00
2023-05-10T19:17:31.116Z,98.90
2023-05-10T19:20:03.005Z,98.90
2023-05-10T19:25:10.957Z,98.70
2023-05-10T19:27:37.873Z,98.80
2023-05-10T19:30:05.822Z,98.90
2023-05-10T19:32:32.938Z,98.90
2023-05-10T19:35:06.141Z,98.90
2023-05-10T19:37:33.018Z,99.00
2023-05-10T19:40:00.056Z,99.00
2023-05-10T19:42:26.861Z,99.10
2023-05-10T19:45:04.588Z,99.20
2023-05-10T19:47:31.442Z,99.20
2023-05-10T19:49:58.823Z,99.30
2023-05-10T19:52:25.940Z,99.30
2023-05-10T19:55:26.331Z,99.30
2023-05-10T19:57:53.450Z,99.20
2023-05-10T20:00:21.670Z,99.30
2023-05-10T20:02:49.756Z,99.20
2023-05-10T20:05:17.113Z,99.30
2023-05-10T20:07:44.415Z,99.20
2023-05-10T20:10:11.708Z,99.20
2023-05-10T20:12:38.604Z,99.20
2023-05-10T20:15:11.113Z,99.10
2023-05-10T20:17:37.976Z,99.00
2023-05-10T20:20:05.425Z,99.00
2023-05-10T20:22:32.222Z,98.90
2023-05-10T20:25:04.850Z,98.90
2023-05-10T20:27:31.756Z,98.90
2023-05-10T20:29:58.699Z,98.90
2023-05-10T20:32:25.629Z,98.80
2023-05-10T20:34:57.684Z,98.90
2023-05-10T20:37:24.593Z,98.90
2023-05-10T20:39:51.424Z,98.80
2023-05-10T20:42:18.395Z,98.70
2023-05-10T20:44:45.286Z,99.10
2023-05-10T20:47:13.901Z,98.60
2023-05-10T20:49:40.944Z,98.60
2023-05-10T20:52:08.345Z,98.60
2023-05-10T20:54:40.846Z,98.70
2023-05-10T20:57:07.883Z,98.70
2023-05-10T20:59:34.892Z,98.70
2023-05-10T21:02:01.830Z,98.70
2023-05-10T21:04:34.517Z,98.70
2023-05-10T21:07:01.632Z,98.70
2023-05-10T21:09:28.511Z,99.10
2023-05-10T21:11:55.448Z,98.80
2023-05-10T21:14:27.804Z,98.80
2023-05-10T21:16:55.073Z,98.80
2023-05-10T21:19:22.253Z,98.90
2023-05-10T21:21:51.751Z,98.90
2023-05-10T21:24:23.294Z,99.00
2023-05-10T21:26:50.351Z,99.00
2023-05-10T21:29:17.178Z,98.90
2023-05-10T21:31:44.047Z,98.90
2023-05-10T21:34:11.052Z,98.90
2023-05-10T21:36:37.873Z,98.90
2023-05-10T21:39:04.926Z,98.90
2023-05-10T21:41:31.770Z,98.90
2023-05-10T21:44:04.042Z,98.90
2023-05-10T21:46:31.006Z,98.90
2023-05-10T21:48:58.094Z,99.00
2023-05-10T21:51:24.979Z,99.00
2023-05-10T21:54:11.917Z,99.00
2023-05-10T21:56:38.842Z,98.80
2023-05-10T21:59:06.093Z,98.90
2023-05-10T22:01:32.968Z,99.00
2023-05-10T22:04:24.980Z,98.90
2023-05-10T22:06:51.963Z,98.70
2023-05-10T22:09:18.956Z,98.80
2023-05-10T22:11:45.959Z,98.80
2023-05-10T22:14:18.225Z,99.30
2023-05-10T22:16:45.130Z,98.90
2023-05-10T22:19:12.145Z,98.90
2023-05-10T22:21:39.287Z,99.10
2023-05-10T22:24:11.432Z,99.10
2023-05-10T22:26:38.272Z,99.20
2023-05-10T22:29:05.149Z,99.30
2023-05-10T22:31:32.248Z,99.20
2023-05-10T22:34:25.163Z,99.30
2023-05-10T22:36:52.515Z,99.30
2023-05-10T22:39:19.384Z,99.50
2023-05-10T22:41:46.622Z,99.60
2023-05-10T22:44:13.422Z,99.70
2023-05-10T22:46:40.420Z,99.70
2023-05-10T22:49:07.459Z,99.70
2023-05-10T22:51:34.884Z,99.80
2023-05-10T22:54:53.271Z,99.90
2023-05-10T22:57:20.184Z,99.90
2023-05-10T22:59:48.779Z,99.90
2023-05-10T23:02:16.277Z,99.90
2023-05-10T23:04:43.434Z,99.90
2023-05-10T23:07:10.313Z,99.90
2023-05-10T23:09:37.165Z,99.90
2023-05-10T23:12:04.480Z,99.90
2023-05-10T23:14:38.504Z,99.90
2023-05-10T23:17:05.533Z,99.90
2023-05-10T23:19:32.334Z,99.90
2023-05-10T23:21:59.649Z,99.90
2023-05-10T23:24:27.368Z,99.90
2023-05-10T23:26:54.111Z,99.90
2023-05-10T23:29:21.305Z,99.90
2023-05-10T23:31:51.599Z,99.90
2023-05-10T23:34:18.579Z,99.90
2023-05-10T23:36:45.471Z,99.90
2023-05-10T23:39:12.609Z,99.90
2023-05-10T23:41:39.457Z,99.90
2023-05-10T23:45:03.077Z,99.90
2023-05-10T23:47:29.927Z,99.90
2023-05-10T23:49:57.043Z,99.90
2023-05-10T23:52:25.158Z,99.90
2023-05-10T23:54:52.629Z,99.90
2023-05-10T23:57:19.716Z,99.90
2023-05-10T23:59:46.798Z,99.90
